createdAt,value
2018-12-01T00:00:36.200Z,99.58
2018-12-01T00:01:43.479Z,99.69
2018-12-01T00:02:49.088Z,99.62
2018-12-01T00:03:54.778Z,99.55
2018-12-01T00:05:03.121Z,99.84
2018-12-01T00:06:08.410Z,99.84
2018-12-01T00:07:13.133Z,99.85
2018-12-01T00:08:20.540Z,99.68
2018-12-01T00:09:27.123Z,99.88
2018-12-01T00:10:32.327Z,99.63
2018-12-01T00:11:38.945Z,99.73
2018-12-01T00:12:44.462Z,99.82
2018-12-01T00:13:49.121Z,99.70
2018-12-01T00:14:54.156Z,99.90
2018-12-01T00:15:58.890Z,99.77
2018-12-01T00:17:03.668Z,100.00
2018-12-01T00:18:08.324Z,100.00
2018-12-01T00:19:13.011Z,99.89
2018-12-01T00:20:18.302Z,100.00
2018-12-01T00:21:24.382Z,99.92
2018-12-01T00:22:29.287Z,99.78
2018-12-01T00:23:37.210Z,99.95
2018-12-01T00:24:42.661Z,100.00
2018-12-01T00:25:47.320Z,99.70
2018-12-01T00:26:52.345Z,99.75
2018-12-01T00:27:57.527Z,99.76
2018-12-01T00:29:03.090Z,100.00
2018-12-01T00:30:09.507Z,100.00
2018-12-01T00:31:15.396Z,99.87
2018-12-01T00:32:20.052Z,100.00
2018-12-01T00:33:24.741Z,100.00
2018-12-01T00:34:30.038Z,99.98
2018-12-01T00:35:34.790Z,100.00
2018-12-01T00:36:39.587Z,100.00
2018-12-01T00:37:44.423Z,100.00
2018-12-01T00:38:49.274Z,100.00
2018-12-01T00:39:54.033Z,100.00
2018-12-01T00:40:59.553Z,100.00
2018-12-01T00:42:06.841Z,100.00
2018-12-01T00:43:12.164Z,100.00
2018-12-01T00:44:17.669Z,100.00
2018-12-01T00:45:23.449Z,100.00
2018-12-01T00:46:31.910Z,100.00
2018-12-01T00:47:37.072Z,100.00
2018-12-01T00:48:41.757Z,100.00
2018-12-01T00:49:46.688Z,100.00
2018-12-01T00:50:51.635Z,100.00
2018-12-01T00:51:58.164Z,100.00
2018-12-01T00:53:03.689Z,100.00
2018-12-01T00:54:08.356Z,100.00
2018-12-01T00:55:15.181Z,100.00
2018-12-01T00:56:20.626Z,100.00
2018-12-01T00:57:27.377Z,100.00
2018-12-01T00:58:33.498Z,100.00
2018-12-01T00:59:38.734Z,100.00
2018-12-01T01:00:43.686Z,100.00
2018-12-01T01:01:48.595Z,100.00
2018-12-01T01:02:54.407Z,100.00
2018-12-01T01:04:00.171Z,100.00
2018-12-01T01:05:04.938Z,100.00
2018-12-01T01:06:10.180Z,100.00
2018-12-01T01:07:15.044Z,100.00
2018-12-01T01:08:20.362Z,100.00
2018-12-01T01:09:25.521Z,100.00
2018-12-01T01:10:31.131Z,100.00
2018-12-01T01:11:36.563Z,100.00
2018-12-01T01:12:41.606Z,100.00
2018-12-01T01:13:47.223Z,100.00
2018-12-01T01:14:52.695Z,100.00
2018-12-01T01:15:57.964Z,100.00
2018-12-01T01:17:03.066Z,100.00
2018-12-01T01:18:08.417Z,100.00
2018-12-01T01:19:14.174Z,100.00
2018-12-01T01:20:19.583Z,100.00
2018-12-01T01:21:24.747Z,100.00
2018-12-01T01:22:29.740Z,100.00
2018-12-01T01:23:34.416Z,100.00
2018-12-01T01:24:39.059Z,100.00
2018-12-01T01:25:44.355Z,100.00
2018-12-01T01:26:49.236Z,100.00
2018-12-01T01:27:54.068Z,100.00
2018-12-01T01:28:58.872Z,100.00
2018-12-01T01:30:04.041Z,100.00
2018-12-01T01:31:08.857Z,100.00
2018-12-01T01:32:14.076Z,100.00
2018-12-01T01:33:29.596Z,100.00
2018-12-01T01:34:34.649Z,100.00
2018-12-01T01:35:39.442Z,100.00
2018-12-01T01:36:44.354Z,100.00
2018-12-01T01:37:49.893Z,100.00
2018-12-01T01:38:56.258Z,100.00
2018-12-01T01:40:01.383Z,100.00
2018-12-01T01:41:08.905Z,100.00
2018-12-01T01:42:14.210Z,100.00
2018-12-01T01:43:19.058Z,100.00
2018-12-01T01:44:23.822Z,100.00
2018-12-01T01:45:32.935Z,100.00
2018-12-01T01:46:38.602Z,100.00
2018-12-01T01:47:43.379Z,100.00
2018-12-01T01:48:48.130Z,100.00
2018-12-01T01:49:52.750Z,100.00
2018-12-01T01:50:57.424Z,100.00
2018-12-01T01:52:03.461Z,100.00
2018-12-01T01:53:08.472Z,100.00
2018-12-01T01:54:13.094Z,100.00
2018-12-01T01:55:19.566Z,100.00
2018-12-01T01:56:24.310Z,100.00
2018-12-01T01:57:29.288Z,100.00
2018-12-01T01:58:34.374Z,100.00
2018-12-01T01:59:39.048Z,100.00
2018-12-01T02:00:43.714Z,100.00
2018-12-01T02:01:48.390Z,100.00
2018-12-01T02:02:53.231Z,100.00
2018-12-01T02:03:57.907Z,100.00
2018-12-01T02:05:03.332Z,100.00
2018-12-01T02:06:08.061Z,100.00
2018-12-01T02:07:13.688Z,100.00
2018-12-01T02:08:18.393Z,100.00
2018-12-01T02:09:23.048Z,100.00
2018-12-01T02:10:27.734Z,100.00
2018-12-01T02:11:32.732Z,100.00
2018-12-01T02:12:37.403Z,100.00
2018-12-01T02:13:43.050Z,100.00
2018-12-01T02:14:48.415Z,100.00
2018-12-01T02:15:53.020Z,100.00
2018-12-01T02:16:57.675Z,100.00
2018-12-01T02:18:03.602Z,100.00
2018-12-01T02:19:08.435Z,100.00
2018-12-01T02:20:14.727Z,100.00
2018-12-01T02:21:19.457Z,100.00
2018-12-01T02:22:24.215Z,100.00
2018-12-01T02:23:28.866Z,100.00
2018-12-01T02:24:35.707Z,100.00
2018-12-01T02:25:40.437Z,100.00
2018-12-01T02:26:45.046Z,100.00
2018-12-01T02:27:50.722Z,100.00
2018-12-01T02:28:55.927Z,100.00
2018-12-01T02:30:01.353Z,100.00
2018-12-01T02:31:06.719Z,100.00
2018-12-01T02:32:12.350Z,100.00
2018-12-01T02:33:17.246Z,100.00
2018-12-01T02:34:22.919Z,100.00
2018-12-01T02:35:28.203Z,100.00
2018-12-01T02:36:32.892Z,100.00
2018-12-01T02:37:38.646Z,100.00
2018-12-01T02:38:43.258Z,100.00
2018-12-01T02:39:48.954Z,100.00
2018-12-01T02:40:53.647Z,100.00
2018-12-01T02:41:58.591Z,100.00
2018-12-01T02:43:03.229Z,100.00
2018-12-01T02:44:14.615Z,100.00
2018-12-01T02:45:24.418Z,100.00
2018-12-01T02:46:34.468Z,100.00
2018-12-01T02:47:39.251Z,100.00
2018-12-01T02:48:44.003Z,100.00
2018-12-01T02:49:48.776Z,100.00
2018-12-01T02:50:53.933Z,99.92
2018-12-01T02:51:58.597Z,100.00
2018-12-01T02:53:03.880Z,100.00
2018-12-01T02:54:08.585Z,100.00
2018-12-01T02:55:13.708Z,100.00
2018-12-01T02:56:19.380Z,100.00
2018-12-01T02:57:24.480Z,100.00
2018-12-01T02:58:29.791Z,99.65
2018-12-01T02:59:34.460Z,99.70
2018-12-01T03:00:40.246Z,99.94
2018-12-01T03:01:45.054Z,99.83
2018-12-01T03:02:49.808Z,99.89
2018-12-01T03:03:54.937Z,99.93
2018-12-01T03:05:00.697Z,99.90
2018-12-01T03:06:05.767Z,99.85
2018-12-01T03:07:10.466Z,99.82
2018-12-01T03:08:15.177Z,99.85
2018-12-01T03:09:19.877Z,100.00
2018-12-01T03:10:25.112Z,99.85
2018-12-01T03:11:29.933Z,100.00
2018-12-01T03:12:34.650Z,99.67
2018-12-01T03:13:39.483Z,100.00
2018-12-01T03:14:44.322Z,99.80
2018-12-01T03:15:49.738Z,100.00
2018-12-01T03:16:55.931Z,100.00
2018-12-01T03:18:01.657Z,100.00
2018-12-01T03:19:06.541Z,100.00
2018-12-01T03:20:13.196Z,100.00
2018-12-01T03:21:18.789Z,100.00
2018-12-01T03:22:23.732Z,100.00
2018-12-01T03:23:29.615Z,100.00
2018-12-01T03:24:34.392Z,100.00
2018-12-01T03:25:39.646Z,100.00
2018-12-01T03:26:44.314Z,100.00
2018-12-01T03:27:49.543Z,100.00
2018-12-01T03:28:54.427Z,100.00
2018-12-01T03:29:59.212Z,100.00
2018-12-01T03:31:04.434Z,100.00
2018-12-01T03:32:09.318Z,100.00
2018-12-01T03:33:14.852Z,100.00
2018-12-01T03:34:20.536Z,100.00
2018-12-01T03:35:25.949Z,100.00
2018-12-01T03:36:32.173Z,100.00
2018-12-01T03:37:36.882Z,100.00
2018-12-01T03:38:41.618Z,100.00
2018-12-01T03:39:46.290Z,100.00
2018-12-01T03:40:51.084Z,100.00
2018-12-01T03:41:56.015Z,100.00
2018-12-01T03:43:00.806Z,100.00
2018-12-01T03:44:05.677Z,100.00
2018-12-01T03:45:11.062Z,100.00
2018-12-01T03:46:15.704Z,100.00
2018-12-01T03:47:20.420Z,100.00
2018-12-01T03:48:25.623Z,100.00
2018-12-01T03:49:30.634Z,100.00
2018-12-01T03:50:35.701Z,100.00
2018-12-01T03:51:40.345Z,100.00
2018-12-01T03:52:44.998Z,100.00
2018-12-01T03:53:50.406Z,100.00
2018-12-01T03:54:55.618Z,100.00
2018-12-01T03:56:00.377Z,100.00
2018-12-01T03:57:05.585Z,100.00
2018-12-01T03:58:10.978Z,100.00
2018-12-01T03:59:15.864Z,100.00
2018-12-01T04:00:24.684Z,100.00
2018-12-01T04:01:31.434Z,100.00
2018-12-01T04:02:37.245Z,100.00
2018-12-01T04:03:41.926Z,100.00
2018-12-01T04:04:46.605Z,100.00
2018-12-01T04:05:51.222Z,100.00
2018-12-01T04:06:56.200Z,100.00
2018-12-01T04:08:02.365Z,100.00
2018-12-01T04:09:13.299Z,100.00
2018-12-01T04:10:18.356Z,100.00
2018-12-01T04:11:23.880Z,100.00
2018-12-01T04:12:29.229Z,100.00
2018-12-01T04:13:33.924Z,100.00
2018-12-01T04:14:39.127Z,100.00
2018-12-01T04:15:44.719Z,100.00
2018-12-01T04:16:50.102Z,100.00
2018-12-01T04:17:54.996Z,100.00
2018-12-01T04:18:59.980Z,100.00
2018-12-01T04:20:04.916Z,100.00
2018-12-01T04:21:10.276Z,100.00
2018-12-01T04:22:14.934Z,100.00
2018-12-01T04:23:19.775Z,100.00
2018-12-01T04:24:24.627Z,100.00
2018-12-01T04:25:29.536Z,100.00
2018-12-01T04:26:34.246Z,100.00
2018-12-01T04:27:39.290Z,100.00
2018-12-01T04:28:44.063Z,100.00
2018-12-01T04:29:48.938Z,100.00
2018-12-01T04:30:53.556Z,100.00
2018-12-01T04:31:58.254Z,100.00
2018-12-01T04:33:03.161Z,100.00
2018-12-01T04:34:08.367Z,100.00
2018-12-01T04:35:19.168Z,100.00
2018-12-01T04:36:24.140Z,100.00
2018-12-01T04:37:29.050Z,100.00
2018-12-01T04:38:33.681Z,100.00
2018-12-01T04:39:38.543Z,100.00
2018-12-01T04:40:43.668Z,100.00
2018-12-01T04:41:48.879Z,100.00
2018-12-01T04:42:53.911Z,100.00
2018-12-01T04:43:58.574Z,100.00
2018-12-01T04:45:03.178Z,100.00
2018-12-01T04:46:08.351Z,100.00
2018-12-01T04:47:13.470Z,100.00
2018-12-01T04:48:18.678Z,100.00
2018-12-01T04:49:23.937Z,100.00
2018-12-01T04:50:28.896Z,100.00
2018-12-01T04:51:35.314Z,100.00
2018-12-01T04:52:40.754Z,100.00
2018-12-01T04:53:47.402Z,100.00
2018-12-01T04:54:52.018Z,100.00
2018-12-01T04:55:56.625Z,100.00
2018-12-01T04:57:01.299Z,100.00
2018-12-01T04:58:05.989Z,100.00
2018-12-01T04:59:10.638Z,100.00
2018-12-01T05:00:17.953Z,100.00
2018-12-01T05:01:22.591Z,100.00
2018-12-01T05:02:27.238Z,100.00
2018-12-01T05:03:31.860Z,100.00
2018-12-01T05:04:36.725Z,100.00
2018-12-01T05:05:41.424Z,100.00
2018-12-01T05:06:46.531Z,100.00
2018-12-01T05:07:51.280Z,100.00
2018-12-01T05:08:55.930Z,100.00
2018-12-01T05:10:00.605Z,100.00
2018-12-01T05:11:05.245Z,100.00
2018-12-01T05:12:09.910Z,100.00
2018-12-01T05:13:14.558Z,100.00
2018-12-01T05:14:19.221Z,100.00
2018-12-01T05:15:23.867Z,100.00
2018-12-01T05:16:28.514Z,100.00
2018-12-01T05:17:33.356Z,100.00
2018-12-01T05:18:38.159Z,100.00
2018-12-01T05:19:43.286Z,100.00
2018-12-01T05:20:48.058Z,100.00
2018-12-01T05:21:52.910Z,100.00
2018-12-01T05:22:57.549Z,100.00
2018-12-01T05:24:02.341Z,100.00
2018-12-01T05:25:08.593Z,100.00
2018-12-01T05:26:13.785Z,100.00
2018-12-01T05:27:18.442Z,100.00
2018-12-01T05:28:23.115Z,100.00
2018-12-01T05:29:27.769Z,100.00
2018-12-01T05:30:32.472Z,100.00
2018-12-01T05:31:37.104Z,100.00
2018-12-01T05:32:42.318Z,100.00
2018-12-01T05:33:47.968Z,100.00
2018-12-01T05:34:52.601Z,100.00
2018-12-01T05:35:57.244Z,100.00
2018-12-01T05:37:02.082Z,100.00
2018-12-01T05:38:06.767Z,100.00
2018-12-01T05:39:11.760Z,100.00
2018-12-01T05:40:16.425Z,100.00
2018-12-01T05:41:21.096Z,100.00
2018-12-01T05:42:26.727Z,100.00
2018-12-01T05:43:32.225Z,100.00
2018-12-01T05:44:36.854Z,100.00
2018-12-01T05:45:41.879Z,100.00
2018-12-01T05:46:46.490Z,100.00
2018-12-01T05:47:51.355Z,100.00
2018-12-01T05:48:55.997Z,100.00
2018-12-01T05:50:00.605Z,99.89
2018-12-01T05:51:05.269Z,100.00
2018-12-01T05:52:10.752Z,100.00
2018-12-01T05:53:15.388Z,100.00
2018-12-01T05:54:20.043Z,100.00
2018-12-01T05:55:24.735Z,100.00
2018-12-01T05:56:29.522Z,100.00
2018-12-01T05:57:34.210Z,100.00
2018-12-01T05:58:39.306Z,100.00
2018-12-01T05:59:43.948Z,100.00
2018-12-01T06:00:48.554Z,99.93
2018-12-01T06:01:53.239Z,100.00
2018-12-01T06:02:58.359Z,99.88
2018-12-01T06:04:03.140Z,99.93
2018-12-01T06:05:08.527Z,100.00
2018-12-01T06:06:13.160Z,99.89
2018-12-01T06:07:17.790Z,100.00
2018-12-01T06:08:23.073Z,99.91
2018-12-01T06:09:27.708Z,99.99
2018-12-01T06:10:32.310Z,100.00
2018-12-01T06:11:39.054Z,100.00
2018-12-01T06:12:43.722Z,99.94
2018-12-01T06:13:48.362Z,100.00
2018-12-01T06:14:53.634Z,99.79
2018-12-01T06:15:58.259Z,100.00
2018-12-01T06:17:02.922Z,100.00
2018-12-01T06:18:11.291Z,100.00
2018-12-01T06:19:18.624Z,100.00
2018-12-01T06:20:23.881Z,99.74
2018-12-01T06:21:28.520Z,99.91
2018-12-01T06:22:33.174Z,99.81
2018-12-01T06:23:38.266Z,99.89
2018-12-01T06:24:43.641Z,99.89
2018-12-01T06:25:48.360Z,99.68
2018-12-01T06:26:52.981Z,99.83
2018-12-01T06:27:58.653Z,99.71
2018-12-01T06:29:03.330Z,99.66
2018-12-01T06:43:53.600Z,99.61
2018-12-01T06:44:58.290Z,99.79
2018-12-01T06:46:02.935Z,99.43
2018-12-01T06:47:07.565Z,99.58
2018-12-01T06:48:12.350Z,99.46
2018-12-01T06:49:17.299Z,99.29
2018-12-01T06:50:22.847Z,99.50
2018-12-01T06:51:28.123Z,99.32
2018-12-01T06:52:32.752Z,99.18
2018-12-01T06:53:38.107Z,99.49
2018-12-01T06:54:42.758Z,99.20
2018-12-01T06:55:47.693Z,99.01
2018-12-01T06:56:52.685Z,99.29
2018-12-01T06:57:58.431Z,99.29
2018-12-01T06:59:03.069Z,99.40
2018-12-01T07:00:11.502Z,99.05
2018-12-01T07:01:16.104Z,99.09
2018-12-01T07:02:21.122Z,99.15
2018-12-01T07:03:25.857Z,99.09
2018-12-01T07:04:30.483Z,99.13
2018-12-01T07:05:35.094Z,98.86
2018-12-01T07:06:39.727Z,98.84
2018-12-01T07:07:44.356Z,99.01
2018-12-01T07:08:49.353Z,98.92
2018-12-01T07:09:55.139Z,99.05
2018-12-01T07:11:00.558Z,98.69
2018-12-01T07:12:05.197Z,98.57
2018-12-01T07:13:09.841Z,98.75
2018-12-01T07:14:14.476Z,98.56
2018-12-01T07:15:49.741Z,98.42
2018-12-01T07:16:54.645Z,98.75
2018-12-01T07:17:59.275Z,98.48
2018-12-01T07:19:11.240Z,98.46
2018-12-01T07:20:15.852Z,98.30
2018-12-01T07:21:20.499Z,98.58
2018-12-01T07:22:26.562Z,98.41
2018-12-01T07:23:31.222Z,98.37
2018-12-01T07:24:35.925Z,98.23
2018-12-01T07:25:40.564Z,98.41
2018-12-01T07:26:45.201Z,98.36
2018-12-01T07:27:50.246Z,98.56
2018-12-01T07:28:55.186Z,98.35
2018-12-01T07:29:59.803Z,98.22
2018-12-01T07:31:04.399Z,98.28
2018-12-01T07:32:09.174Z,98.44
2018-12-01T07:33:13.827Z,98.27
2018-12-01T07:34:20.363Z,98.33
2018-12-01T07:35:25.550Z,98.07
2018-12-01T07:36:30.307Z,97.85
2018-12-01T07:37:35.022Z,98.16
2018-12-01T07:38:39.738Z,98.36
2018-12-01T07:39:45.167Z,98.27
2018-12-01T07:40:49.842Z,98.22
2018-12-01T07:41:54.779Z,98.26
2018-12-01T07:42:59.402Z,98.05
2018-12-01T07:44:04.069Z,97.95
2018-12-01T07:45:10.355Z,98.46
2018-12-01T07:46:15.626Z,98.24
2018-12-01T07:47:22.405Z,98.39
2018-12-01T07:48:27.379Z,98.23
2018-12-01T07:49:32.038Z,98.21
2018-12-01T07:50:36.687Z,98.08
2018-12-01T07:51:41.957Z,98.09
2018-12-01T07:52:48.944Z,98.25
2018-12-01T07:53:53.833Z,98.08
2018-12-01T07:54:58.457Z,98.20
2018-12-01T07:56:03.160Z,98.08
2018-12-01T07:57:08.834Z,97.54
2018-12-01T07:58:14.390Z,98.12
2018-12-01T07:59:20.763Z,98.32
2018-12-01T08:00:27.408Z,98.05
2018-12-01T08:01:32.058Z,97.93
2018-12-01T08:02:36.784Z,97.74
2018-12-01T08:03:41.563Z,97.99
2018-12-01T08:04:46.322Z,97.65
2018-12-01T08:05:52.481Z,97.56
2018-12-01T08:06:57.406Z,96.96
2018-12-01T08:08:03.747Z,97.05
2018-12-01T08:09:09.615Z,96.49
2018-12-01T08:10:17.332Z,96.83
2018-12-01T08:11:22.085Z,96.43
2018-12-01T08:12:27.236Z,96.49
2018-12-01T08:13:34.390Z,95.94
2018-12-01T08:14:39.091Z,96.00
2018-12-01T08:15:43.979Z,95.69
2018-12-01T08:16:48.983Z,100.00
2018-12-01T08:17:53.835Z,95.66
2018-12-01T08:18:59.668Z,100.00
2018-12-01T08:20:05.495Z,94.12
2018-12-01T08:21:12.097Z,94.12
2018-12-01T08:22:16.997Z,93.97
2018-12-01T08:23:21.796Z,100.00
2018-12-01T08:24:26.717Z,100.00
2018-12-01T08:25:31.648Z,100.00
2018-12-01T08:26:36.703Z,93.70
2018-12-01T08:27:45.273Z,93.27
2018-12-01T08:28:49.941Z,100.00
2018-12-01T08:29:55.434Z,100.00
2018-12-01T08:31:00.076Z,100.00
2018-12-01T08:32:04.782Z,92.49
2018-12-01T08:33:09.725Z,92.83
2018-12-01T08:34:14.377Z,92.96
2018-12-01T08:35:19.353Z,92.80
2018-12-01T08:36:24.031Z,93.06
2018-12-01T08:37:28.646Z,92.90
2018-12-01T08:38:33.559Z,92.52
2018-12-01T08:39:39.390Z,92.60
2018-12-01T08:40:44.097Z,92.73
2018-12-01T08:41:49.002Z,92.52
2018-12-01T08:42:53.974Z,100.00
2018-12-01T08:44:14.152Z,100.00
2018-12-01T08:45:20.854Z,91.43
2018-12-01T08:46:25.532Z,100.00
2018-12-01T08:47:31.414Z,100.00
2018-12-01T08:48:36.022Z,90.36
2018-12-01T08:49:40.895Z,89.46
2018-12-01T08:50:46.350Z,89.70
2018-12-01T08:51:50.730Z,89.61
2018-12-01T08:52:56.309Z,100.00
2018-12-01T08:54:01.619Z,100.00
2018-12-01T08:55:08.464Z,88.80
2018-12-01T08:56:13.236Z,88.53
2018-12-01T08:57:18.428Z,88.22
2018-12-01T08:58:24.380Z,87.77
2018-12-01T08:59:29.474Z,87.78
2018-12-01T09:00:37.415Z,87.80
2018-12-01T09:01:42.038Z,88.32
2018-12-01T09:02:48.791Z,88.72
2018-12-01T09:03:54.674Z,100.00
2018-12-01T09:05:00.050Z,100.00
2018-12-01T09:06:04.943Z,88.95
2018-12-01T09:07:09.568Z,88.91
2018-12-01T09:08:14.289Z,89.14
2018-12-01T09:09:19.132Z,89.23
2018-12-01T09:10:25.176Z,89.39
2018-12-01T09:11:31.917Z,100.00
2018-12-01T09:12:36.586Z,88.77
2018-12-01T09:13:41.436Z,88.16
2018-12-01T09:14:46.328Z,87.23
2018-12-01T09:15:51.781Z,86.64
2018-12-01T09:16:56.678Z,90.40
2018-12-01T09:18:01.925Z,87.37
2018-12-01T09:19:07.445Z,85.98
2018-12-01T09:20:13.874Z,85.64
2018-12-01T09:21:18.771Z,85.58
2018-12-01T09:22:23.514Z,85.43
2018-12-01T09:23:28.271Z,85.46
2018-12-01T09:24:33.563Z,85.52
2018-12-01T09:25:38.434Z,85.11
2018-12-01T09:26:43.361Z,85.22
2018-12-01T09:27:48.692Z,85.34
2018-12-01T09:28:54.224Z,85.21
2018-12-01T09:29:59.020Z,85.04
2018-12-01T09:31:05.157Z,84.39
2018-12-01T09:32:11.549Z,84.86
2018-12-01T09:33:16.969Z,84.75
2018-12-01T09:34:22.054Z,84.84
2018-12-01T09:35:27.176Z,85.26
2018-12-01T09:36:32.193Z,85.17
2018-12-01T09:37:38.823Z,85.87
2018-12-01T09:38:43.750Z,85.93
2018-12-01T09:39:48.674Z,85.37
2018-12-01T09:40:54.387Z,85.74
2018-12-01T09:42:00.106Z,86.30
2018-12-01T09:43:05.083Z,86.44
2018-12-01T09:44:11.489Z,86.48
2018-12-01T09:45:17.586Z,86.61
2018-12-01T09:46:23.560Z,86.84
2018-12-01T09:47:30.530Z,87.30
2018-12-01T09:48:40.459Z,87.61
2018-12-01T09:49:48.645Z,87.70
2018-12-01T09:50:54.727Z,87.91
2018-12-01T09:52:02.121Z,87.98
2018-12-01T09:53:08.304Z,88.07
2018-12-01T09:54:13.409Z,88.36
2018-12-01T09:55:26.772Z,88.34
2018-12-01T09:56:32.889Z,88.45
2018-12-01T09:57:38.111Z,88.42
2018-12-01T09:58:42.777Z,88.88
2018-12-01T09:59:48.375Z,88.96
2018-12-01T10:00:53.104Z,88.74
2018-12-01T10:01:58.324Z,89.00
2018-12-01T10:03:03.718Z,88.91
2018-12-01T10:04:08.929Z,88.83
2018-12-01T10:05:15.032Z,89.16
2018-12-01T10:06:19.654Z,88.92
2018-12-01T10:07:26.410Z,89.14
2018-12-01T10:08:33.077Z,89.29
2018-12-01T10:09:38.365Z,89.58
2018-12-01T10:10:46.281Z,89.29
2018-12-01T10:11:51.500Z,89.84
2018-12-01T10:12:57.451Z,89.68
2018-12-01T10:14:03.215Z,89.42
2018-12-01T10:15:11.509Z,89.68
2018-12-01T10:16:16.853Z,90.19
2018-12-01T10:17:21.851Z,90.33
2018-12-01T10:18:27.233Z,90.13
2018-12-01T10:19:32.973Z,90.24
2018-12-01T10:20:40.149Z,90.35
2018-12-01T10:21:46.705Z,89.85
2018-12-01T10:22:51.694Z,90.40
2018-12-01T10:23:56.450Z,90.37
2018-12-01T10:25:01.572Z,90.11
2018-12-01T10:26:06.375Z,90.21
2018-12-01T10:27:11.416Z,90.29
2018-12-01T10:28:16.416Z,90.57
2018-12-01T10:29:21.061Z,90.56
2018-12-01T10:30:27.180Z,90.62
2018-12-01T10:31:31.802Z,90.47
2018-12-01T10:32:36.641Z,90.79
2018-12-01T10:33:41.971Z,90.71
2018-12-01T10:34:48.792Z,90.35
2018-12-01T10:35:54.597Z,90.77
2018-12-01T10:36:59.638Z,90.31
2018-12-01T10:38:09.187Z,90.56
2018-12-01T10:39:18.342Z,90.51
2018-12-01T10:40:24.809Z,90.44
2018-12-01T10:41:29.689Z,90.15
2018-12-01T10:42:37.515Z,90.31
2018-12-01T10:43:42.928Z,90.25
2018-12-01T10:44:48.677Z,89.99
2018-12-01T10:45:53.501Z,90.10
2018-12-01T10:46:59.371Z,90.30
2018-12-01T10:48:04.220Z,89.64
2018-12-01T10:49:10.340Z,89.65
2018-12-01T10:50:16.335Z,88.96
2018-12-01T10:51:21.623Z,89.08
2018-12-01T10:52:27.707Z,89.26
2018-12-01T10:53:33.726Z,89.04
2018-12-01T10:54:38.449Z,88.53
2018-12-01T10:55:44.793Z,88.50
2018-12-01T10:56:50.589Z,88.35
2018-12-01T10:57:56.840Z,88.27
2018-12-01T10:59:02.489Z,88.36
2018-12-01T11:00:15.845Z,87.95
2018-12-01T11:01:25.572Z,87.94
2018-12-01T11:02:35.338Z,87.31
2018-12-01T11:03:42.015Z,87.29
2018-12-01T11:04:47.447Z,87.35
2018-12-01T11:05:52.349Z,86.83
2018-12-01T11:06:58.720Z,86.91
2018-12-01T11:08:03.392Z,86.32
2018-12-01T11:09:09.588Z,85.96
2018-12-01T11:10:14.668Z,86.14
2018-12-01T11:11:19.999Z,85.38
2018-12-01T11:12:24.846Z,85.49
2018-12-01T11:13:33.960Z,85.35
2018-12-01T11:14:41.156Z,85.23
2018-12-01T11:15:47.390Z,84.72
2018-12-01T11:16:53.057Z,84.77
2018-12-01T11:17:57.742Z,84.73
2018-12-01T11:19:03.395Z,83.84
2018-12-01T11:20:10.462Z,83.93
2018-12-01T11:21:15.293Z,83.50
2018-12-01T11:22:21.614Z,83.05
2018-12-01T11:23:26.720Z,83.36
2018-12-01T11:24:31.581Z,83.25
2018-12-01T11:25:38.924Z,83.50
2018-12-01T11:26:45.709Z,83.63
2018-12-01T11:27:51.295Z,83.63
2018-12-01T11:28:57.109Z,83.05
2018-12-01T11:30:03.349Z,83.38
2018-12-01T11:42:59.098Z,82.31
2018-12-01T11:44:04.988Z,82.09
2018-12-01T11:45:12.109Z,82.11
2018-12-01T11:46:17.631Z,82.02
2018-12-01T11:47:22.551Z,82.23
2018-12-01T11:48:27.535Z,82.37
2018-12-01T11:49:32.803Z,81.78
2018-12-01T11:50:39.385Z,82.07
2018-12-01T11:51:44.443Z,82.24
2018-12-01T11:52:51.081Z,81.84
2018-12-01T11:53:56.887Z,82.27
2018-12-01T11:55:01.929Z,81.92
2018-12-01T11:56:06.627Z,81.97
2018-12-01T11:57:11.278Z,81.47
2018-12-01T11:58:15.940Z,81.46
2018-12-01T11:59:20.574Z,82.06
2018-12-01T12:00:28.598Z,81.73
2018-12-01T12:01:33.695Z,81.46
2018-12-01T12:02:38.393Z,80.80
2018-12-01T12:03:43.107Z,79.92
2018-12-01T12:04:47.779Z,80.26
2018-12-01T12:05:53.462Z,79.56
2018-12-01T12:06:59.420Z,78.57
2018-12-01T12:08:24.420Z,78.87
2018-12-01T12:09:29.041Z,79.14
2018-12-01T12:10:33.772Z,78.70
2018-12-01T12:11:38.429Z,78.98
2018-12-01T12:12:43.899Z,77.72
2018-12-01T12:13:49.274Z,78.11
2018-12-01T12:14:55.454Z,77.67
2018-12-01T12:16:00.148Z,77.48
2018-12-01T12:17:04.932Z,76.72
2018-12-01T12:18:11.195Z,76.25
2018-12-01T12:19:16.610Z,76.34
2018-12-01T12:20:21.861Z,75.82
2018-12-01T12:21:26.899Z,76.44
2018-12-01T12:22:31.555Z,76.23
2018-12-01T12:23:36.216Z,76.17
2018-12-01T12:24:41.479Z,76.66
2018-12-01T12:25:48.149Z,76.68
2018-12-01T12:27:10.627Z,77.00
2018-12-01T12:28:15.654Z,77.37
2018-12-01T12:29:20.326Z,76.79
2018-12-01T12:30:26.284Z,75.91
2018-12-01T12:31:31.801Z,75.58
2018-12-01T12:32:37.495Z,75.10
2018-12-01T12:33:44.688Z,73.19
2018-12-01T12:34:50.560Z,72.63
2018-12-01T12:35:57.823Z,73.73
2018-12-01T12:37:02.896Z,75.10
2018-12-01T12:38:07.554Z,75.35
2018-12-01T12:39:12.351Z,74.79
2018-12-01T12:40:18.800Z,74.49
2018-12-01T12:41:23.450Z,73.00
2018-12-01T12:42:28.115Z,72.37
2018-12-01T12:43:33.195Z,71.46
2018-12-01T12:44:38.530Z,69.85
2018-12-01T12:45:43.204Z,69.84
2018-12-01T12:52:25.448Z,74.07
2018-12-01T12:53:31.186Z,74.67
2018-12-01T12:54:39.796Z,74.98
2018-12-01T12:55:45.296Z,75.73
2018-12-01T12:56:50.143Z,76.21
2018-12-01T12:57:54.824Z,76.30
2018-12-01T12:59:00.448Z,76.19
2018-12-01T13:00:06.466Z,76.38
2018-12-01T13:01:12.815Z,76.31
2018-12-01T13:02:19.241Z,76.68
2018-12-01T13:03:23.925Z,76.43
2018-12-01T13:04:29.245Z,76.41
2018-12-01T13:05:35.938Z,76.83
2018-12-01T13:06:41.226Z,77.05
2018-12-01T13:07:50.281Z,77.16
2018-12-01T13:08:56.354Z,76.93
2018-12-01T13:10:02.349Z,77.14
2018-12-01T13:11:07.183Z,76.67
2018-12-01T13:12:13.598Z,75.93
2018-12-01T13:13:18.610Z,76.08
2018-12-01T13:14:24.265Z,75.93
2018-12-01T13:15:28.979Z,75.97
2018-12-01T13:16:33.647Z,75.86
2018-12-01T13:17:39.589Z,75.40
2018-12-01T13:18:44.985Z,75.39
2018-12-01T13:19:52.595Z,74.46
2018-12-01T13:20:57.237Z,74.25
2018-12-01T13:22:01.905Z,74.32
2018-12-01T13:23:06.964Z,74.08
2018-12-01T13:25:33.962Z,75.32
2018-12-01T13:26:40.728Z,75.63
2018-12-01T13:27:49.677Z,76.11
2018-12-01T13:28:55.036Z,75.57
2018-12-01T13:29:59.759Z,75.85
2018-12-01T13:31:04.986Z,76.08
2018-12-01T13:32:09.852Z,76.13
2018-12-01T13:33:14.987Z,76.32
2018-12-01T13:34:19.623Z,76.28
2018-12-01T13:35:24.546Z,76.21
2018-12-01T13:36:29.276Z,76.45
2018-12-01T13:37:33.967Z,76.55
2018-12-01T13:38:38.595Z,76.72
2018-12-01T13:39:43.361Z,76.55
2018-12-01T13:40:48.575Z,76.67
2018-12-01T13:41:53.635Z,76.81
2018-12-01T13:42:59.010Z,77.00
2018-12-01T13:44:03.699Z,77.36
2018-12-01T13:45:09.564Z,77.35
2018-12-01T13:46:14.283Z,77.74
2018-12-01T13:47:18.976Z,77.75
2018-12-01T13:48:23.616Z,77.36
2018-12-01T13:49:28.603Z,77.33
2018-12-01T13:50:33.224Z,77.51
2018-12-01T13:51:37.860Z,77.67
2018-12-01T13:52:42.752Z,77.51
2018-12-01T13:53:49.315Z,77.71
2018-12-01T13:54:58.455Z,77.46
2018-12-01T13:56:05.016Z,77.64
2018-12-01T13:57:10.618Z,77.68
2018-12-01T13:58:15.661Z,77.59
2018-12-01T13:59:22.610Z,77.64
2018-12-01T14:00:28.610Z,77.74
2018-12-01T14:01:34.439Z,77.61
2018-12-01T14:02:39.451Z,77.45
2018-12-01T14:03:44.122Z,77.75
2018-12-01T14:04:49.441Z,77.47
2018-12-01T14:05:54.133Z,77.18
2018-12-01T14:06:58.793Z,77.08
2018-12-01T14:08:03.548Z,77.30
2018-12-01T14:09:09.304Z,77.35
2018-12-01T14:10:19.133Z,77.43
2018-12-01T14:11:24.592Z,77.38
2018-12-01T14:12:29.276Z,77.33
2018-12-01T14:13:33.947Z,77.00
2018-12-01T14:14:40.223Z,77.04
2018-12-01T14:15:47.716Z,76.77
2018-12-01T14:16:52.535Z,77.06
2018-12-01T14:17:58.042Z,76.99
2018-12-01T14:19:03.289Z,77.38
2018-12-01T14:20:08.385Z,77.40
2018-12-01T14:21:13.076Z,77.42
2018-12-01T14:22:18.144Z,77.49
2018-12-01T14:23:23.601Z,77.48
2018-12-01T14:24:28.281Z,77.62
2018-12-01T14:25:33.004Z,77.23